ADDS METAR Data INFO
IDs: Format: Raw Decoded Include TAF

Data at: 0752 UTC 17 Oct 2017

KGJT 170653Z AUTO 00000KT 10SM CLR 01/M11 A3036 RMK AO2 SLP265 T00111111 401941028
KGJT 170553Z AUTO 08004KT 10SM CLR 07/M11 A3035 RMK AO2 SLP254 T00671111 10178 20056 51004
KGJT 170453Z AUTO 08005KT 10SM CLR 07/M12 A3035 RMK AO2 SLP256 T00721117
KGJT 170353Z AUTO 08004KT 10SM CLR 06/M12 A3035 RMK AO2 SLP263 T00611122
KGJT 170253Z 00000KT 10SM CLR 07/M12 A3034 RMK AO2 SLP266 T00671117 51005
KGJT 170153Z 00000KT 10SM CLR 08/M11 A3034 RMK AO2 SLP270 T00781111
KGJT 170053Z 00000KT 10SM CLR 13/M09 A3033 RMK AO2 SLP260 T01281094
KGJT 162353Z 28005KT 10SM CLR 18/M10 A3032 RMK AO2 SLP247 60000 T01781100 10194 20133 56012
KGJT 162253Z 31010KT 10SM CLR 19/M13 A3033 RMK AO2 RAB2157E18 SLP249 P0000 T01891128
KGJT 162153Z 29012KT 10SM CLR 19/M12 A3034 RMK AO2 SLP255 T01891122
KGJT 162053Z 31007KT 10SM CLR 18/M09 A3036 RMK AO2 SLP253 T01831089 58028
KGJT 161953Z 29004KT 10SM CLR 17/M11 A3039 RMK AO2 SLP268 T01671106
KGJT 161853Z VRB04KT 10SM CLR 16/M11 A3043 RMK AO2 SLP279 T01561106
KGJT 161753Z 00000KT 10SM CLR 13/M10 A3046 RMK AO2 SLP293 T01331100 10133 21028 58012
KGJT 161653Z 16005KT 10SM CLR 12/M09 A3048 RMK AO2 SLP304 T01171089
KGJT 161553Z 17005KT 10SM CLR 08/M08 A3050 RMK AO2 SLP319 T00831078
KGJT 161453Z 13008KT 10SM CLR 04/M08 A3050 RMK AO2 SLP324 T00391083 53011
KGJT 161353Z 10004KT 10SM CLR 01/M09 A3048 RMK AO2 SLP317 T00061089
KGJT 161253Z 09006KT 10SM CLR M01/M09 A3046 RMK AO2 SLP312 T10111094
KGJT 161153Z 10003KT 10SM CLR 00/M09 A3046 RMK AO2 SLP299 T00001094 10056 21011 55000
KGJT 161053Z AUTO 07007KT 10SM CLR M01/M10 A3046 RMK AO2 SLP298 T10061100
KGJT 160953Z AUTO 08003KT 10SM CLR M01/M11 A3045 RMK AO2 SLP296 T10111106
KGJT 160853Z AUTO 13005KT 10SM CLR 04/M11 A3046 RMK AO2 SLP292 T00391106 55000
KGJT 160753Z AUTO 11003KT 10SM CLR 03/M11 A3046 RMK AO2 SLP293 T00331106
KGJT 160653Z AUTO 09005KT 10SM CLR 05/M11 A3045 RMK AO2 SLP293 T00501106 401721022
KGJT 160553Z AUTO 09005KT 10SM CLR 06/M10 A3046 RMK AO2 SLP297 T00561100 10161 20033 51006
KGJT 160453Z AUTO 08004KT 10SM CLR 05/M11 A3046 RMK AO2 SLP302 T00501106
KGJT 160353Z AUTO 11003KT 10SM CLR 04/M12 A3045 RMK AO2 SLP307 T00391117
KGJT 160253Z 00000KT 10SM CLR 06/M12 A3044 RMK AO2 SLP304 T00611117 53007
KGJT 160153Z 04003KT 10SM CLR 09/M11 A3043 RMK AO2 SLP305 T00891111
KGJT 160053Z 31003KT 10SM CLR 11/M10 A3042 RMK AO2 SLP299 T01111100
KGJT 152353Z 28006KT 10SM CLR 16/M11 A3042 RMK AO2 SLP285 T01611111 10172 20117 56010
KGJT 152253Z VRB04KT 10SM CLR 17/M12 A3042 RMK AO2 SLP287 T01671117
KGJT 152153Z VRB04KT 10SM CLR 17/M14 A3044 RMK AO2 SLP290 T01721139
KGJT 152053Z 00000KT 10SM CLR 16/M14 A3045 RMK AO2 SLP298 T01561144 58030
KGJT 151953Z 00000KT 10SM CLR 15/M14 A3049 RMK AO2 SLP310 T01501139